Time;durP1;ratioP1;P1;durP2;ratioP2;P2;SDS_P1;SDS_P2;PMS_P1;PMS_P2;Temp;Humidity;BMP_temperature;BMP_pressure;BME280_temperature;BME280_humidity;BME280_pressure;Samples;Min_cycle;Max_cycle;Signal;HPM_P1;HPM_P2
2021/09/23 00:00:50;;;;;;;6.45;2.83;;;;;;;;;;4992633;28;20030;-47
2021/09/23 00:03:33;;;;;;;10.43;4.15;;;;;;;;;;4989801;28;20093;-47
2021/09/23 00:05:59;;;;;;;7.95;2.80;;;;;;;;;;4989498;28;20018;-50
2021/09/23 00:08:24;;;;;;;8.02;2.97;;;;;;;;;;4989501;28;20041;-48
2021/09/23 00:10:50;;;;;;;3.25;2.03;;;;;;;;;;4989895;28;20037;-45
2021/09/23 00:13:15;;;;;;;6.90;2.30;;;;;;;;;;4989495;28;20047;-44
2021/09/23 00:15:41;;;;;;;14.38;3.78;;;;;;;;;;4990234;28;20037;-48
2021/09/23 00:18:11;;;;;;;7.55;2.83;;;;;;;;;;4992013;28;20026;-46
2021/09/23 00:20:38;;;;;;;8.93;2.53;;;;;;;;;;4993274;28;20033;-45
2021/09/23 00:23:04;;;;;;;10.60;2.08;;;;;;;;;;4990381;28;20030;-44
2021/09/23 00:25:29;;;;;;;6.25;2.60;;;;;;;;;;4984715;28;20125;-47
2021/09/23 00:27:55;;;;;;;6.13;2.08;;;;;;;;;;4987462;28;20026;-45
2021/09/23 00:30:20;;;;;;;7.10;2.45;;;;;;;;;;4985764;28;20023;-48
2021/09/23 00:32:45;;;;;;;8.68;2.08;;;;;;;;;;4985718;28;19917;-48
2021/09/23 00:35:11;;;;;;;3.30;1.90;;;;;;;;;;4986701;28;20022;-45
2021/09/23 00:37:36;;;;;;;11.85;2.88;;;;;;;;;;4984896;28;20583;-46
2021/09/23 00:40:07;;;;;;;4.50;2.05;;;;;;;;;;4988367;28;20080;-49
2021/09/23 00:42:33;;;;;;;10.85;3.33;;;;;;;;;;4987025;28;20140;-45
2021/09/23 00:45:00;;;;;;;6.78;1.58;;;;;;;;;;4989055;28;20114;-45
2021/09/23 00:47:26;;;;;;;3.50;1.77;;;;;;;;;;4992296;28;20771;-47
2021/09/23 00:49:51;;;;;;;12.73;2.05;;;;;;;;;;4990748;28;20034;-42
2021/09/23 00:52:19;;;;;;;17.00;3.20;;;;;;;;;;4991089;28;20037;-44
2021/09/23 00:54:44;;;;;;;12.10;2.88;;;;;;;;;;4986668;28;20383;-46
2021/09/23 00:57:15;;;;;;;5.30;2.72;;;;;;;;;;4987631;28;20018;-43
2021/09/23 00:59:41;;;;;;;10.05;2.20;;;;;;;;;;4984486;28;20018;-46
2021/09/23 01:02:06;;;;;;;8.18;1.83;;;;;;;;;;4987443;28;20098;-45
2021/09/23 01:04:31;;;;;;;6.78;2.63;;;;;;;;;;4990524;28;20771;-45
2021/09/23 01:06:57;;;;;;;2.65;1.60;;;;;;;;;;4989109;28;20037;-46
2021/09/23 01:09:22;;;;;;;9.48;2.70;;;;;;;;;;4990027;28;20022;-49
2021/09/23 01:11:47;;;;;;;4.68;2.58;;;;;;;;;;4989561;28;20489;-43
2021/09/23 01:14:13;;;;;;;5.07;2.35;;;;;;;;;;4985810;28;20145;-46
2021/09/23 01:16:38;;;;;;;2.95;1.00;;;;;;;;;;4989495;28;20042;-45
2021/09/23 01:19:04;;;;;;;5.72;3.00;;;;;;;;;;4995279;28;20030;-46
2021/09/23 01:21:29;;;;;;;3.25;1.83;;;;;;;;;;4981430;28;20062;-46
2021/09/23 01:23:57;;;;;;;4.60;1.10;;;;;;;;;;4985632;28;20475;-44
2021/09/23 01:26:32;;;;;;;6.20;1.63;;;;;;;;;;4984129;28;20034;-42
2021/09/23 01:29:03;;;;;;;6.90;2.88;;;;;;;;;;4987640;28;20029;-44
2021/09/23 01:31:28;;;;;;;8.32;3.80;;;;;;;;;;4990728;28;20834;-47
2021/09/23 01:34:02;;;;;;;11.13;1.85;;;;;;;;;;4986155;28;20533;-45
2021/09/23 01:36:30;;;;;;;8.18;2.03;;;;;;;;;;4992841;28;20030;-44
2021/09/23 01:39:01;;;;;;;15.13;3.00;;;;;;;;;;4991896;28;20394;-46
2021/09/23 01:41:26;;;;;;;;;;;;;;;;;;4988537;28;20099;-43
2021/09/23 01:43:53;;;;;;;8.05;2.45;;;;;;;;;;4989095;28;20343;-43
2021/09/23 01:46:21;;;;;;;8.80;2.85;;;;;;;;;;4992103;28;20477;-43
2021/09/23 01:48:52;;;;;;;9.65;3.33;;;;;;;;;;4988574;28;20033;-45
2021/09/23 01:51:17;;;;;;;;;;;;;;;;;;4986716;28;20057;-50
2021/09/23 01:53:43;;;;;;;4.77;2.00;;;;;;;;;;4982106;28;19910;-46
2021/09/23 01:56:08;;;;;;;18.00;3.03;;;;;;;;;;4988267;28;20032;-43
2021/09/23 01:58:52;;;;;;;19.95;3.42;;;;;;;;;;4988084;28;20021;-45
2021/09/23 02:01:24;;;;;;;13.05;3.80;;;;;;;;;;4983925;28;20027;-44
2021/09/23 02:03:50;;;;;;;16.52;3.47;;;;;;;;;;4989420;28;20033;-48
2021/09/23 02:06:22;;;;;;;10.57;4.15;;;;;;;;;;4985685;28;20103;-45
2021/09/23 02:08:48;;;;;;;16.35;4.13;;;;;;;;;;4989753;28;20033;-43
2021/09/23 02:11:14;;;;;;;15.68;3.28;;;;;;;;;;4988566;28;20030;-46
2021/09/23 02:13:39;;;;;;;35.95;5.50;;;;;;;;;;4988007;28;20493;-44
2021/09/23 02:16:05;;;;;;;15.50;4.70;;;;;;;;;;4987157;28;20057;-43
2021/09/23 02:18:30;;;;;;;7.80;3.08;;;;;;;;;;4985368;28;20034;-45
2021/09/23 02:20:55;;;;;;;11.02;5.22;;;;;;;;;;4992244;28;20024;-46
2021/09/23 02:23:21;;;;;;;17.48;3.95;;;;;;;;;;4987178;28;20268;-42
2021/09/23 02:25:46;;;;;;;26.50;4.18;;;;;;;;;;4988289;28;20026;-42
2021/09/23 02:28:11;;;;;;;17.67;2.22;;;;;;;;;;4991383;28;20064;-43
2021/09/23 02:30:37;;;;;;;19.20;5.00;;;;;;;;;;4986428;28;20025;-46
2021/09/23 02:33:02;;;;;;;13.55;4.38;;;;;;;;;;4989691;28;20088;-47
2021/09/23 02:35:28;;;;;;;11.40;4.32;;;;;;;;;;4985108;28;20022;-44
2021/09/23 02:37:53;;;;;;;12.68;4.18;;;;;;;;;;4985158;28;20025;-47
2021/09/23 02:40:18;;;;;;;23.88;5.60;;;;;;;;;;4990107;28;20028;-46
2021/09/23 02:42:44;;;;;;;15.70;6.45;;;;;;;;;;4986035;28;20104;-47
2021/09/23 02:45:10;;;;;;;11.20;3.88;;;;;;;;;;4989954;28;20037;-45
2021/09/23 02:47:35;;;;;;;14.48;3.08;;;;;;;;;;4988375;28;20058;-43
2021/09/23 02:50:01;;;;;;;7.78;3.45;;;;;;;;;;4984201;28;20068;-47
2021/09/23 02:52:26;;;;;;;19.52;3.75;;;;;;;;;;4987370;28;20389;-45
2021/09/23 02:54:51;;;;;;;12.40;3.85;;;;;;;;;;4990878;28;20018;-47
2021/09/23 02:57:16;;;;;;;11.98;3.83;;;;;;;;;;4987025;28;20518;-44
2021/09/23 02:59:42;;;;;;;7.25;2.53;;;;;;;;;;4992891;28;20470;-46
2021/09/23 03:02:07;;;;;;;8.75;3.10;;;;;;;;;;4990604;28;20030;-43
2021/09/23 03:04:32;;;;;;;9.05;2.90;;;;;;;;;;4992101;28;20140;-45
2021/09/23 03:06:58;;;;;;;22.55;3.70;;;;;;;;;;4984617;28;20484;-46
2021/09/23 03:09:23;;;;;;;7.25;2.47;;;;;;;;;;4994121;28;20171;-44
2021/09/23 03:11:48;;;;;;;8.48;2.25;;;;;;;;;;4992668;28;20407;-42
2021/09/23 03:14:14;;;;;;;11.40;4.10;;;;;;;;;;4989592;28;20027;-43
2021/09/23 03:16:39;;;;;;;9.02;3.85;;;;;;;;;;4992569;28;20465;-46
2021/09/23 03:19:04;;;;;;;15.88;2.95;;;;;;;;;;4996127;28;20616;-47
2021/09/23 03:21:30;;;;;;;7.03;2.05;;;;;;;;;;4987481;28;20030;-44
2021/09/23 03:23:55;;;;;;;8.75;3.08;;;;;;;;;;4985964;28;20479;-48
2021/09/23 03:26:20;;;;;;;10.55;2.35;;;;;;;;;;4993310;28;20031;-47
2021/09/23 03:28:46;;;;;;;15.23;2.72;;;;;;;;;;4988981;28;20027;-45
2021/09/23 03:31:11;;;;;;;10.90;3.60;;;;;;;;;;4986217;28;20557;-43
2021/09/23 03:33:36;;;;;;;9.82;3.03;;;;;;;;;;4985774;28;20912;-45
2021/09/23 03:36:02;;;;;;;9.07;2.90;;;;;;;;;;4986063;28;20435;-45
2021/09/23 03:38:27;;;;;;;16.30;3.28;;;;;;;;;;4991252;28;20774;-45
2021/09/23 03:40:52;;;;;;;7.43;2.55;;;;;;;;;;4990620;28;20037;-48
2021/09/23 03:43:19;;;;;;;13.48;3.22;;;;;;;;;;4989362;28;20037;-45
2021/09/23 03:45:45;;;;;;;4.72;1.13;;;;;;;;;;4992076;28;20030;-42
2021/09/23 03:48:10;;;;;;;12.82;3.22;;;;;;;;;;4989964;28;20151;-51
2021/09/23 03:50:35;;;;;;;9.73;2.65;;;;;;;;;;4990596;28;20025;-47
2021/09/23 03:53:01;;;;;;;14.93;2.03;;;;;;;;;;4990767;28;20022;-46
2021/09/23 03:55:26;;;;;;;9.43;2.92;;;;;;;;;;4989558;28;20469;-45
2021/09/23 03:57:51;;;;;;;13.52;3.53;;;;;;;;;;4988822;28;20719;-46
2021/09/23 04:00:20;;;;;;;10.20;2.65;;;;;;;;;;4991912;28;20026;-48
2021/09/23 04:02:47;;;;;;;10.02;2.83;;;;;;;;;;4991992;28;20049;-43
2021/09/23 04:05:12;;;;;;;4.90;2.33;;;;;;;;;;4992118;28;20502;-44
2021/09/23 04:07:37;;;;;;;5.30;2.00;;;;;;;;;;4990074;28;20033;-46
2021/09/23 04:10:03;;;;;;;6.55;2.30;;;;;;;;;;4991306;28;20042;-50
2021/09/23 04:12:28;;;;;;;15.30;2.75;;;;;;;;;;4989000;28;20694;-48
2021/09/23 04:14:53;;;;;;;10.23;2.78;;;;;;;;;;4982388;28;20058;-51
2021/09/23 04:17:19;;;;;;;8.52;3.72;;;;;;;;;;4990782;28;20022;-47
2021/09/23 04:19:45;;;;;;;8.48;3.35;;;;;;;;;;4985368;28;20387;-50
2021/09/23 04:22:11;;;;;;;6.43;2.65;;;;;;;;;;4986691;28;20694;-48
2021/09/23 04:24:36;;;;;;;8.88;2.83;;;;;;;;;;4993505;28;20064;-47
2021/09/23 04:27:01;;;;;;;17.88;4.43;;;;;;;;;;4990923;28;20376;-48
2021/09/23 04:29:27;;;;;;;18.10;4.70;;;;;;;;;;4993418;28;20120;-47
2021/09/23 04:31:52;;;;;;;6.55;2.30;;;;;;;;;;4989978;28;20030;-46
2021/09/23 04:34:17;;;;;;;6.03;2.72;;;;;;;;;;4988558;28;20512;-42
2021/09/23 04:36:42;;;;;;;28.20;6.55;;;;;;;;;;4989892;28;20029;-47
2021/09/23 04:39:08;;;;;;;15.38;3.30;;;;;;;;;;4988772;28;20025;-47
2021/09/23 04:41:33;;;;;;;17.25;4.40;;;;;;;;;;4986715;28;20065;-45
2021/09/23 04:43:59;;;;;;;13.45;4.07;;;;;;;;;;4983712;28;20022;-46
2021/09/23 04:46:24;;;;;;;12.80;2.45;;;;;;;;;;4992090;28;20054;-46
2021/09/23 04:48:50;;;;;;;6.95;2.63;;;;;;;;;;4997743;28;20034;-45
2021/09/23 04:51:16;;;;;;;4.28;2.75;;;;;;;;;;4988132;28;20026;-45
2021/09/23 04:53:41;;;;;;;9.00;3.08;;;;;;;;;;4988552;28;20026;-48
2021/09/23 04:56:07;;;;;;;14.50;4.05;;;;;;;;;;4989007;28;20066;-44
2021/09/23 04:58:32;;;;;;;10.02;3.08;;;;;;;;;;4987084;28;20053;-48
2021/09/23 05:00:57;;;;;;;10.95;4.30;;;;;;;;;;4987842;28;20066;-45
2021/09/23 05:03:23;;;;;;;12.45;2.92;;;;;;;;;;4990798;28;20022;-45
2021/09/23 05:05:48;;;;;;;8.73;3.50;;;;;;;;;;4989138;28;20447;-49
2021/09/23 05:08:13;;;;;;;15.02;4.13;;;;;;;;;;4989033;28;20037;-45
2021/09/23 05:10:38;;;;;;;6.97;2.88;;;;;;;;;;4992709;28;20025;-45
2021/09/23 05:13:04;;;;;;;6.38;3.83;;;;;;;;;;4992577;28;20466;-51
2021/09/23 05:15:29;;;;;;;10.80;3.85;;;;;;;;;;4982791;28;20022;-47
2021/09/23 05:17:55;;;;;;;9.05;3.10;;;;;;;;;;4991220;28;20034;-45
2021/09/23 05:20:20;;;;;;;16.23;3.83;;;;;;;;;;4986728;28;20022;-46
2021/09/23 05:22:45;;;;;;;10.13;3.40;;;;;;;;;;4987965;28;20079;-46
2021/09/23 05:25:11;;;;;;;13.23;3.95;;;;;;;;;;4990143;28;20057;-46
2021/09/23 05:27:37;;;;;;;14.38;3.47;;;;;;;;;;4987349;28;20041;-47
2021/09/23 05:30:04;;;;;;;9.25;2.40;;;;;;;;;;4986941;28;20038;-46
2021/09/23 05:32:30;;;;;;;10.02;2.78;;;;;;;;;;4992221;28;20037;-47
2021/09/23 05:34:55;;;;;;;19.23;4.00;;;;;;;;;;4987823;28;20519;-48
2021/09/23 05:37:20;;;;;;;9.30;2.45;;;;;;;;;;4984973;28;20034;-45
2021/09/23 05:39:46;;;;;;;14.77;4.15;;;;;;;;;;4988097;28;20018;-43
2021/09/23 05:42:11;;;;;;;10.82;5.35;;;;;;;;;;4987993;28;20057;-43
2021/09/23 05:44:37;;;;;;;10.90;3.50;;;;;;;;;;4989607;28;20034;-43
2021/09/23 05:47:02;;;;;;;8.88;5.10;;;;;;;;;;4985124;28;20389;-43
2021/09/23 05:49:27;;;;;;;6.82;2.17;;;;;;;;;;4988620;28;20606;-43
2021/09/23 05:51:55;;;;;;;10.85;3.40;;;;;;;;;;4989144;28;20249;-47
2021/09/23 05:54:21;;;;;;;12.95;3.75;;;;;;;;;;4994101;28;20010;-47
2021/09/23 05:56:46;;;;;;;9.02;3.35;;;;;;;;;;4991648;28;20072;-43
2021/09/23 05:59:11;;;;;;;12.38;4.95;;;;;;;;;;4988067;28;20114;-42
2021/09/23 06:01:37;;;;;;;3.78;2.22;;;;;;;;;;4986588;28;20394;-42
2021/09/23 06:04:02;;;;;;;8.50;2.58;;;;;;;;;;4994098;28;20022;-42
2021/09/23 06:06:27;;;;;;;11.20;2.60;;;;;;;;;;4993796;28;20026;-43
2021/09/23 06:08:52;;;;;;;10.60;3.05;;;;;;;;;;4989980;28;20033;-43
2021/09/23 06:11:18;;;;;;;14.43;3.40;;;;;;;;;;4991562;28;20167;-46
2021/09/23 06:13:43;;;;;;;4.55;3.35;;;;;;;;;;4985540;28;20390;-44
2021/09/23 06:16:09;;;;;;;9.23;5.25;;;;;;;;;;4988338;28;20105;-45
2021/09/23 06:18:34;;;;;;;16.15;4.45;;;;;;;;;;4987766;28;20030;-43
2021/09/23 06:21:00;;;;;;;22.50;3.15;;;;;;;;;;4988584;28;20566;-45
2021/09/23 06:23:25;;;;;;;12.27;3.45;;;;;;;;;;4986269;28;20467;-45
2021/09/23 06:25:50;;;;;;;12.75;3.17;;;;;;;;;;4994070;28;20018;-46
2021/09/23 06:28:16;;;;;;;19.08;8.02;;;;;;;;;;4987430;28;20037;-44
2021/09/23 06:30:41;;;;;;;20.15;6.05;;;;;;;;;;4985199;28;20030;-44
2021/09/23 06:33:06;;;;;;;15.73;7.10;;;;;;;;;;4987834;28;20041;-43
2021/09/23 06:35:32;;;;;;;13.93;6.90;;;;;;;;;;4987618;28;20026;-43
2021/09/23 06:37:57;;;;;;;28.33;5.95;;;;;;;;;;4989882;28;20022;-44
2021/09/23 06:40:22;;;;;;;13.00;5.75;;;;;;;;;;4985529;28;20478;-45
2021/09/23 06:42:48;;;;;;;27.08;7.53;;;;;;;;;;4991702;28;20418;-46
2021/09/23 06:45:14;;;;;;;14.07;5.57;;;;;;;;;;4986096;28;20517;-46
2021/09/23 06:47:39;;;;;;;11.02;5.53;;;;;;;;;;4989536;28;20058;-44
2021/09/23 06:50:05;;;;;;;13.38;5.13;;;;;;;;;;4984407;28;20118;-41
2021/09/23 06:52:30;;;;;;;12.68;3.80;;;;;;;;;;4987015;28;20123;-43
2021/09/23 06:54:56;;;;;;;22.80;5.65;;;;;;;;;;4983623;28;20470;-41
2021/09/23 06:57:21;;;;;;;12.13;6.22;;;;;;;;;;4986169;28;20023;-42
2021/09/23 06:59:46;;;;;;;14.15;7.72;;;;;;;;;;4989154;28;20592;-43
2021/09/23 07:02:12;;;;;;;13.10;5.47;;;;;;;;;;4988667;28;20549;-41
2021/09/23 07:04:37;;;;;;;13.27;6.82;;;;;;;;;;4991086;28;20038;-42
2021/09/23 07:07:02;;;;;;;11.40;6.05;;;;;;;;;;4987643;28;20042;-46
2021/09/23 07:09:28;;;;;;;11.85;7.47;;;;;;;;;;4987786;28;20078;-36
2021/09/23 07:11:55;;;;;;;36.85;8.65;;;;;;;;;;4984269;28;20647;-35
2021/09/23 07:14:20;;;;;;;29.88;6.80;;;;;;;;;;4992990;28;20030;-36
2021/09/23 07:16:45;;;;;;;7.65;5.32;;;;;;;;;;4987043;28;20084;-35
2021/09/23 07:19:11;;;;;;;17.38;6.20;;;;;;;;;;4990970;28;20475;-36
2021/09/23 07:21:36;;;;;;;20.98;7.40;;;;;;;;;;4984043;28;20023;-35
2021/09/23 07:24:01;;;;;;;24.92;10.35;;;;;;;;;;4983415;28;20678;-36
2021/09/23 07:26:27;;;;;;;24.13;9.07;;;;;;;;;;4989763;28;20090;-37
2021/09/23 07:28:53;;;;;;;16.52;8.75;;;;;;;;;;4987500;28;20514;-35
2021/09/23 07:31:18;;;;;;;15.32;9.60;;;;;;;;;;4987814;28;20357;-36
2021/09/23 07:33:44;;;;;;;12.38;8.70;;;;;;;;;;4988456;28;20023;-35
2021/09/23 07:36:10;;;;;;;19.33;9.60;;;;;;;;;;4987850;28;20023;-36
2021/09/23 07:38:36;;;;;;;27.95;9.05;;;;;;;;;;4987397;28;20042;-35
2021/09/23 07:41:01;;;;;;;23.23;7.97;;;;;;;;;;4991971;28;20727;-37
2021/09/23 07:43:26;;;;;;;19.45;7.97;;;;;;;;;;4994358;28;20031;-44
2021/09/23 07:45:52;;;;;;;21.88;9.95;;;;;;;;;;4989010;28;20104;-48
2021/09/23 07:48:17;;;;;;;24.02;10.20;;;;;;;;;;4989252;28;20063;-42
2021/09/23 07:50:43;;;;;;;22.77;14.27;;;;;;;;;;4993585;28;20111;-44
2021/09/23 07:53:09;;;;;;;39.00;17.40;;;;;;;;;;4988627;28;20101;-41
2021/09/23 07:55:34;;;;;;;33.97;17.38;;;;;;;;;;4989074;28;20030;-41
2021/09/23 07:57:59;;;;;;;30.00;15.90;;;;;;;;;;4988843;28;20027;-43
2021/09/23 08:00:24;;;;;;;25.00;11.88;;;;;;;;;;4990638;28;20022;-41
2021/09/23 08:02:51;;;;;;;28.08;15.48;;;;;;;;;;4987955;28;20054;-40
2021/09/23 08:05:17;;;;;;;21.75;13.32;;;;;;;;;;4995294;28;20045;-40
2021/09/23 08:07:44;;;;;;;23.35;15.73;;;;;;;;;;4986914;28;20031;-41
2021/09/23 08:10:10;;;;;;;27.38;15.85;;;;;;;;;;4991612;28;20037;-43
2021/09/23 08:12:35;;;;;;;23.40;10.57;;;;;;;;;;4997229;28;20387;-40
2021/09/23 08:15:00;;;;;;;23.80;11.93;;;;;;;;;;4987761;28;20037;-42
2021/09/23 08:17:27;;;;;;;12.57;7.00;;;;;;;;;;4992444;28;20026;-43
2021/09/23 08:19:52;;;;;;;24.50;9.40;;;;;;;;;;4987402;28;20414;-41
2021/09/23 08:22:17;;;;;;;6.72;4.80;;;;;;;;;;4990060;28;20026;-41
2021/09/23 08:24:43;;;;;;;19.23;3.88;;;;;;;;;;4990103;28;20037;-43
2021/09/23 08:27:08;;;;;;;12.45;4.03;;;;;;;;;;4990727;28;20026;-43
2021/09/23 08:29:34;;;;;;;7.55;2.50;;;;;;;;;;4988891;28;20163;-40
2021/09/23 08:31:59;;;;;;;9.38;2.17;;;;;;;;;;4989784;28;20061;-41
2021/09/23 08:34:25;;;;;;;5.00;2.03;;;;;;;;;;4988374;28;20023;-40
2021/09/23 08:36:50;;;;;;;4.55;2.53;;;;;;;;;;4990543;28;20391;-42
2021/09/23 08:39:15;;;;;;;15.95;5.90;;;;;;;;;;4992307;28;20087;-41
2021/09/23 08:41:42;;;;;;;16.08;3.38;;;;;;;;;;4993452;28;20089;-43
2021/09/23 08:44:07;;;;;;;8.57;2.47;;;;;;;;;;4988931;28;20031;-44
2021/09/23 08:46:34;;;;;;;7.65;3.25;;;;;;;;;;4991378;28;20371;-42
2021/09/23 08:49:03;;;;;;;19.67;3.33;;;;;;;;;;4990968;28;20034;-43
2021/09/23 08:51:29;;;;;;;18.95;3.80;;;;;;;;;;4987813;28;20064;-47
2021/09/23 08:53:54;;;;;;;7.10;1.65;;;;;;;;;;4991133;28;20462;-44
2021/09/23 08:56:21;;;;;;;10.18;5.70;;;;;;;;;;4994328;28;20103;-41
2021/09/23 08:58:47;;;;;;;11.10;3.42;;;;;;;;;;4991256;28;20954;-44
2021/09/23 09:01:15;;;;;;;15.30;3.85;;;;;;;;;;4989038;28;20082;-47
2021/09/23 09:03:41;;;;;;;9.25;3.65;;;;;;;;;;4986516;28;20137;-44
2021/09/23 09:06:07;;;;;;;9.07;2.40;;;;;;;;;;4991481;28;20113;-42
2021/09/23 09:08:33;;;;;;;5.28;2.13;;;;;;;;;;4991133;28;20494;-47
2021/09/23 09:10:59;;;;;;;11.50;2.38;;;;;;;;;;4991401;28;20387;-45
2021/09/23 09:13:29;;;;;;;6.35;2.38;;;;;;;;;;4988363;28;20095;-47
2021/09/23 09:15:56;;;;;;;10.40;2.97;;;;;;;;;;4986809;28;20024;-43
2021/09/23 09:18:22;;;;;;;5.25;2.38;;;;;;;;;;4981417;28;20076;-45
2021/09/23 09:20:58;;;;;;;23.08;3.45;;;;;;;;;;4983629;28;20402;-42
2021/09/23 09:23:25;;;;;;;11.15;2.72;;;;;;;;;;4992650;28;20022;-43
2021/09/23 09:25:51;;;;;;;10.43;3.45;;;;;;;;;;4989657;28;20171;-44
2021/09/23 09:28:20;;;;;;;16.98;2.35;;;;;;;;;;4991178;28;20061;-41
2021/09/23 09:30:53;;;;;;;4.75;2.13;;;;;;;;;;4992303;28;20125;-43
2021/09/23 09:33:18;;;;;;;17.45;3.75;;;;;;;;;;4989438;28;20508;-41
2021/09/23 09:35:43;;;;;;;8.25;2.53;;;;;;;;;;4994199;28;20062;-42
2021/09/23 09:38:09;;;;;;;8.93;2.35;;;;;;;;;;4988045;28;20106;-43
2021/09/23 09:40:36;;;;;;;10.82;4.15;;;;;;;;;;4991826;28;20046;-45
2021/09/23 09:43:04;;;;;;;5.70;1.92;;;;;;;;;;4987512;28;20099;-42
2021/09/23 09:45:29;;;;;;;3.28;2.03;;;;;;;;;;4993322;28;20034;-46
2021/09/23 09:47:56;;;;;;;16.88;1.73;;;;;;;;;;4987201;28;20369;-44
2021/09/23 09:50:28;;;;;;;8.73;2.05;;;;;;;;;;4990540;28;20026;-43
2021/09/23 09:52:58;;;;;;;6.57;2.13;;;;;;;;;;4988127;28;20022;-42
2021/09/23 09:55:24;;;;;;;5.47;3.10;;;;;;;;;;4986066;28;20769;-41
2021/09/23 09:57:50;;;;;;;5.03;1.90;;;;;;;;;;4987545;28;20145;-44
2021/09/23 10:00:16;;;;;;;10.27;1.95;;;;;;;;;;4987028;28;20057;-43
2021/09/23 10:02:44;;;;;;;4.85;2.10;;;;;;;;;;4983857;28;20084;-44
2021/09/23 10:05:14;;;;;;;7.82;1.60;;;;;;;;;;4985822;28;20038;-42
2021/09/23 10:07:40;;;;;;;6.28;2.55;;;;;;;;;;4987527;28;20105;-42
2021/09/23 10:10:06;;;;;;;7.85;2.63;;;;;;;;;;4987172;28;20126;-44
2021/09/23 10:12:33;;;;;;;14.07;3.00;;;;;;;;;;4988359;28;20043;-41
2021/09/23 10:14:59;;;;;;;7.63;2.40;;;;;;;;;;4987812;28;20018;-45
2021/09/23 10:17:29;;;;;;;7.68;2.22;;;;;;;;;;4989835;28;20030;-43
2021/09/23 10:19:55;;;;;;;8.27;2.15;;;;;;;;;;4984049;28;20087;-44
2021/09/23 10:22:20;;;;;;;8.85;2.42;;;;;;;;;;4984972;28;20037;-45
2021/09/23 10:24:46;;;;;;;5.95;2.35;;;;;;;;;;4989307;28;20030;-44
2021/09/23 10:29:57;;;;;;;2.90;2.33;;;;;;;;;;4986746;28;20065;-42
2021/09/23 10:32:22;;;;;;;3.85;1.70;;;;;;;;;;4992593;28;20109;-46
2021/09/23 10:34:51;;;;;;;10.77;2.90;;;;;;;;;;4985328;28;20019;-47
2021/09/23 10:37:17;;;;;;;6.20;1.58;;;;;;;;;;4983797;28;20025;-45
2021/09/23 10:39:43;;;;;;;8.32;1.92;;;;;;;;;;4986850;28;20018;-44
2021/09/23 10:42:11;;;;;;;10.23;2.58;;;;;;;;;;4991196;28;20092;-42
2021/09/23 10:44:38;;;;;;;4.13;1.95;;;;;;;;;;4988527;28;20519;-42
2021/09/23 10:47:05;;;;;;;5.55;1.25;;;;;;;;;;4988408;28;20478;-41
2021/09/23 10:49:30;;;;;;;11.93;2.90;;;;;;;;;;4987985;28;20111;-44
2021/09/23 10:51:56;;;;;;;6.72;2.33;;;;;;;;;;4989816;28;20433;-44
2021/09/23 10:54:23;;;;;;;8.77;2.83;;;;;;;;;;4986952;28;20040;-41
2021/09/23 10:56:49;;;;;;;7.80;3.00;;;;;;;;;;4983043;28;20026;-41
2021/09/23 10:59:14;;;;;;;15.18;2.65;;;;;;;;;;4989103;28;20099;-40
2021/09/23 11:01:40;;;;;;;5.63;2.25;;;;;;;;;;4988318;28;20037;-41
2021/09/23 11:04:06;;;;;;;9.48;2.50;;;;;;;;;;4993684;28;20049;-40
2021/09/23 11:06:34;;;;;;;15.07;2.45;;;;;;;;;;4988140;28;20029;-40
2021/09/23 11:09:15;;;;;;;7.72;4.30;;;;;;;;;;4994555;28;20026;-41
2021/09/23 11:11:42;;;;;;;8.20;3.20;;;;;;;;;;4992943;28;20510;-42
2021/09/23 11:14:08;;;;;;;6.55;3.20;;;;;;;;;;4993053;28;20030;-40
2021/09/23 11:16:34;;;;;;;8.30;2.28;;;;;;;;;;4997528;28;20034;-40
2021/09/23 11:19:01;;;;;;;7.97;2.67;;;;;;;;;;4982883;28;20118;-41
2021/09/23 11:21:27;;;;;;;17.73;4.03;;;;;;;;;;4994903;28;20030;-39
2021/09/23 11:23:53;;;;;;;20.77;3.33;;;;;;;;;;4987310;28;20555;-39
2021/09/23 11:26:18;;;;;;;9.63;2.22;;;;;;;;;;4993225;28;20030;-39
2021/09/23 11:28:44;;;;;;;14.55;3.58;;;;;;;;;;4989681;28;20036;-40
2021/09/23 11:31:09;;;;;;;10.40;2.65;;;;;;;;;;4989463;28;20030;-40
2021/09/23 11:33:41;;;;;;;11.05;3.75;;;;;;;;;;4993520;28;20025;-39
2021/09/23 11:36:07;;;;;;;8.10;4.03;;;;;;;;;;4992974;28;20022;-42
2021/09/23 11:38:32;;;;;;;8.35;3.65;;;;;;;;;;4992504;28;20030;-42
2021/09/23 11:40:58;;;;;;;6.28;3.30;;;;;;;;;;4992546;28;20087;-40
2021/09/23 11:43:29;;;;;;;9.43;3.42;;;;;;;;;;4994362;28;20074;-43
2021/09/23 11:45:55;;;;;;;10.75;3.50;;;;;;;;;;4991830;28;20076;-43
2021/09/23 11:48:27;;;;;;;5.55;2.45;;;;;;;;;;4996552;28;20421;-40
2021/09/23 11:51:00;;;;;;;2.92;1.70;;;;;;;;;;4988410;28;20565;-43
2021/09/23 11:53:32;;;;;;;21.20;4.68;;;;;;;;;;4987222;28;20050;-43
2021/09/23 11:56:01;;;;;;;8.90;3.58;;;;;;;;;;4990519;28;20101;-44
2021/09/23 11:58:27;;;;;;;11.43;3.45;;;;;;;;;;4989702;28;20016;-43
2021/09/23 12:00:53;;;;;;;10.35;3.03;;;;;;;;;;4993271;28;20109;-41
2021/09/23 12:03:19;;;;;;;8.48;2.25;;;;;;;;;;4987192;28;20093;-42
2021/09/23 12:05:46;;;;;;;5.93;2.30;;;;;;;;;;4991731;28;20075;-41
2021/09/23 12:08:15;;;;;;;13.05;3.17;;;;;;;;;;4995605;28;20026;-44
2021/09/23 12:10:47;;;;;;;6.00;2.85;;;;;;;;;;4995469;28;20018;-40
2021/09/23 12:13:20;;;;;;;21.08;4.13;;;;;;;;;;4988690;28;20079;-45
2021/09/23 12:15:50;;;;;;;6.97;3.60;;;;;;;;;;4990131;28;20040;-41
2021/09/23 12:18:15;;;;;;;13.63;3.65;;;;;;;;;;4996061;28;20476;-42
2021/09/23 12:20:42;;;;;;;21.73;3.63;;;;;;;;;;4994075;28;20030;-48
2021/09/23 12:23:26;;;;;;;9.55;2.75;;;;;;;;;;4990554;28;20086;-41
2021/09/23 12:26:07;;;;;;;7.22;2.72;;;;;;;;;;4989519;28;20018;-44
2021/09/23 12:28:33;;;;;;;8.63;3.85;;;;;;;;;;4986820;28;20036;-44
2021/09/23 12:31:04;;;;;;;6.15;2.22;;;;;;;;;;4986540;28;20495;-41
2021/09/23 12:33:29;;;;;;;12.80;3.38;;;;;;;;;;4996657;28;20026;-45
2021/09/23 12:36:12;;;;;;;7.90;2.88;;;;;;;;;;4997463;28;20110;-43
2021/09/23 12:38:38;;;;;;;4.15;2.40;;;;;;;;;;4993212;28;20031;-43
2021/09/23 12:41:14;;;;;;;4.22;3.20;;;;;;;;;;4997474;28;20056;-41
2021/09/23 12:43:40;;;;;;;6.53;2.47;;;;;;;;;;4990580;28;20026;-42
2021/09/23 12:46:07;;;;;;;8.55;2.17;;;;;;;;;;4988064;28;20022;-43
2021/09/23 12:48:32;;;;;;;5.78;2.22;;;;;;;;;;4992648;28;20033;-41
2021/09/23 12:50:57;;;;;;;6.25;1.77;;;;;;;;;;4995884;28;20140;-42
2021/09/23 12:53:23;;;;;;;11.25;2.83;;;;;;;;;;4989374;28;20297;-41
2021/09/23 12:55:48;;;;;;;9.30;2.40;;;;;;;;;;4991258;28;20095;-44
2021/09/23 12:58:19;;;;;;;7.72;3.03;;;;;;;;;;4994208;28;20118;-46
2021/09/23 13:00:47;;;;;;;17.85;2.75;;;;;;;;;;4989541;28;20026;-45
2021/09/23 13:03:13;;;;;;;17.02;2.88;;;;;;;;;;4992075;28;20117;-43
2021/09/23 13:05:40;;;;;;;11.18;2.45;;;;;;;;;;4989085;28;20022;-42
2021/09/23 13:08:08;;;;;;;6.75;2.85;;;;;;;;;;4988488;28;20042;-44
2021/09/23 13:10:34;;;;;;;5.90;3.17;;;;;;;;;;4990949;28;20025;-39
2021/09/23 13:13:01;;;;;;;12.57;2.28;;;;;;;;;;4990348;28;20033;-39
2021/09/23 13:15:33;;;;;;;4.70;2.60;;;;;;;;;;4985512;28;20014;-44
2021/09/23 13:18:15;;;;;;;3.33;1.95;;;;;;;;;;4993140;28;20513;-42
2021/09/23 13:20:48;;;;;;;5.25;2.47;;;;;;;;;;4992054;28;20026;-42
2021/09/23 13:23:17;;;;;;;7.45;2.88;;;;;;;;;;4990866;28;20146;-40
2021/09/23 13:25:50;;;;;;;4.43;2.47;;;;;;;;;;4994824;28;20538;-42
2021/09/23 13:28:35;;;;;;;23.10;3.33;;;;;;;;;;4989383;28;20152;-42
2021/09/23 13:31:05;;;;;;;4.00;2.00;;;;;;;;;;4983869;28;20038;-43
2021/09/23 13:33:31;;;;;;;14.83;1.77;;;;;;;;;;4985872;28;20046;-39
2021/09/23 13:35:57;;;;;;;5.22;2.00;;;;;;;;;;4991127;28;20107;-42
2021/09/23 13:38:23;;;;;;;2.55;1.77;;;;;;;;;;4993756;28;20100;-42
2021/09/23 13:40:49;;;;;;;6.80;1.27;;;;;;;;;;4990804;28;20594;-42
2021/09/23 13:43:14;;;;;;;3.75;1.80;;;;;;;;;;4990930;28;20471;-41
2021/09/23 13:45:40;;;;;;;10.15;3.42;;;;;;;;;;4989357;28;20482;-41
2021/09/23 13:48:06;;;;;;;18.55;3.35;;;;;;;;;;4989314;28;20023;-45
2021/09/23 13:50:32;;;;;;;2.45;1.08;;;;;;;;;;4988421;28;20240;-47
2021/09/23 13:52:57;;;;;;;3.55;1.92;;;;;;;;;;4995807;28;20511;-42
2021/09/23 13:55:23;;;;;;;4.05;1.98;;;;;;;;;;4981190;28;20019;-45
2021/09/23 13:57:48;;;;;;;4.55;3.00;;;;;;;;;;4988839;28;20025;-40
2021/09/23 14:00:14;;;;;;;5.45;2.33;;;;;;;;;;4990404;28;20026;-41
2021/09/23 14:02:42;;;;;;;12.05;1.67;;;;;;;;;;4992598;28;20029;-41
2021/09/23 14:05:08;;;;;;;14.15;2.40;;;;;;;;;;4988547;28;20030;-40
2021/09/23 14:07:34;;;;;;;16.27;2.13;;;;;;;;;;4988399;28;20030;-43
2021/09/23 14:10:00;;;;;;;2.47;1.20;;;;;;;;;;4999356;28;20390;-45
2021/09/23 14:12:25;;;;;;;2.05;1.55;;;;;;;;;;4990654;28;20049;-40
2021/09/23 14:14:50;;;;;;;3.40;2.30;;;;;;;;;;4987455;28;20075;-40
2021/09/23 14:17:16;;;;;;;8.40;1.92;;;;;;;;;;4990573;28;20044;-41
2021/09/23 14:19:41;;;;;;;6.78;2.65;;;;;;;;;;4992370;28;20019;-45
2021/09/23 14:22:07;;;;;;;4.63;2.15;;;;;;;;;;4990970;28;20482;-42
2021/09/23 14:24:33;;;;;;;5.07;2.20;;;;;;;;;;4989271;28;20096;-43
2021/09/23 14:26:58;;;;;;;4.95;2.83;;;;;;;;;;4989534;28;20467;-43
2021/09/23 14:29:24;;;;;;;6.20;2.40;;;;;;;;;;4993444;28;20049;-49
2021/09/23 14:31:49;;;;;;;23.45;2.78;;;;;;;;;;4991773;28;20533;-43
2021/09/23 14:34:15;;;;;;;10.90;2.65;;;;;;;;;;4987271;28;20070;-40